Time;durP1;ratioP1;P1;durP2;ratioP2;P2;SDS_P1;SDS_P2;PMS_P1;PMS_P2;Temp;Humidity;BMP_temperature;BMP_pressure;BME280_temperature;BME280_humidity;BME280_pressure;Samples;Min_cycle;Max_cycle;Signal;HPM_P1;HPM_P2
2021/12/26 00:00:23;;;;;;;2.00;1.33;;;-6.10;99.90;;;;;;5067824;28;20061;-83
2021/12/26 00:02:48;;;;;;;1.00;0.90;;;-6.00;99.90;;;;;;5066333;28;20044;-84
2021/12/26 00:05:15;;;;;;;1.97;1.40;;;-6.10;99.90;;;;;;5063597;28;20099;-84
2021/12/26 00:07:41;;;;;;;0.60;0.60;;;-6.10;99.90;;;;;;5072550;28;20046;-83
2021/12/26 00:10:10;;;;;;;4.93;3.33;;;-6.10;99.90;;;;;;5055496;28;20119;-84
2021/12/26 00:12:36;;;;;;;4.47;1.90;;;-6.10;99.90;;;;;;5072736;28;20360;-83
2021/12/26 00:15:02;;;;;;;1.67;1.43;;;-6.10;99.90;;;;;;5055992;28;20048;-84
2021/12/26 00:17:28;;;;;;;1.63;1.10;;;-6.00;99.90;;;;;;5056000;28;20039;-84
2021/12/26 00:19:53;;;;;;;2.07;1.17;;;-6.10;99.90;;;;;;5056494;28;20044;-84
2021/12/26 00:22:19;;;;;;;5.60;1.70;;;-6.10;99.90;;;;;;5055951;28;20046;-84
2021/12/26 00:24:46;;;;;;;2.77;1.20;;;-6.00;99.90;;;;;;5074010;28;20035;-83
2021/12/26 00:27:13;;;;;;;1.37;1.20;;;-6.10;99.90;;;;;;5057752;28;20063;-83
2021/12/26 00:29:38;;;;;;;2.07;1.40;;;-6.00;99.90;;;;;;5074246;28;20036;-84
2021/12/26 00:32:06;;;;;;;1.93;1.10;;;-6.00;99.90;;;;;;5057617;28;20039;-83
2021/12/26 00:34:32;;;;;;;3.07;1.97;;;-6.10;99.90;;;;;;5074260;28;20189;-84
2021/12/26 00:36:58;;;;;;;2.13;1.23;;;-6.10;99.90;;;;;;5073882;28;20068;-84
2021/12/26 00:39:23;;;;;;;0.50;0.50;;;-6.10;99.90;;;;;;5073972;28;20090;-84
2021/12/26 00:41:49;;;;;;;2.63;1.30;;;-6.10;99.90;;;;;;5074123;28;20074;-83
2021/12/26 00:44:14;;;;;;;2.20;1.03;;;-6.10;99.90;;;;;;5074232;28;20180;-83
2021/12/26 00:46:40;;;;;;;1.07;0.97;;;-6.10;99.90;;;;;;5057253;28;20043;-84
2021/12/26 00:49:05;;;;;;;3.90;1.70;;;-6.20;99.90;;;;;;5057716;28;20485;-83
2021/12/26 00:51:31;;;;;;;4.00;2.30;;;-6.20;99.90;;;;;;5055824;28;20040;-83
2021/12/26 00:53:57;;;;;;;1.00;0.90;;;-6.20;99.90;;;;;;5055565;28;20503;-83
2021/12/26 00:56:23;;;;;;;1.17;0.83;;;-6.20;99.90;;;;;;5072565;28;20040;-83
2021/12/26 00:58:48;;;;;;;1.13;0.80;;;-6.20;99.90;;;;;;5057634;28;20042;-83
2021/12/26 01:01:14;;;;;;;1.87;1.30;;;-6.20;99.90;;;;;;5056020;28;20044;-84
2021/12/26 01:03:40;;;;;;;3.67;1.57;;;-6.20;99.90;;;;;;5074025;28;20059;-84
2021/12/26 01:06:07;;;;;;;0.80;0.80;;;-6.20;99.90;;;;;;5057243;28;20032;-84
2021/12/26 01:08:38;;;;;;;1.33;0.90;;;-6.10;99.90;;;;;;5057285;28;20044;-84
2021/12/26 01:11:21;;;;;;;3.17;1.43;;;-6.10;99.90;;;;;;5057192;28;20028;-83
2021/12/26 01:13:48;;;;;;;0.70;0.70;;;-6.10;99.90;;;;;;5057347;28;20071;-83
2021/12/26 01:16:15;;;;;;;0.60;0.60;;;-6.10;99.90;;;;;;5056738;28;20385;-84
2021/12/26 01:18:50;;;;;;;0.80;0.70;;;-6.10;99.90;;;;;;5057212;28;20464;-84
2021/12/26 01:21:18;;;;;;;0.85;0.77;;;-6.10;99.90;;;;;;5057192;28;20040;-83
2021/12/26 01:23:58;;;;;;;1.47;1.03;;;-6.10;99.90;;;;;;5057012;28;20028;-84
2021/12/26 01:26:25;;;;;;;1.67;1.43;;;-6.10;99.90;;;;;;5073968;28;20497;-83
2021/12/26 01:28:50;;;;;;;2.87;1.23;;;-6.10;99.90;;;;;;5057138;28;20058;-84
2021/12/26 01:31:19;;;;;;;3.53;1.27;;;-6.10;99.90;;;;;;5057150;28;20032;-83
2021/12/26 01:33:50;;;;;;;2.40;1.33;;;-6.10;99.90;;;;;;5057056;28;20084;-83
2021/12/26 01:36:16;;;;;;;2.53;1.13;;;-6.00;99.90;;;;;;5060851;28;20036;-83
2021/12/26 01:38:42;;;;;;;0.93;0.83;;;-6.00;99.90;;;;;;5061051;28;20043;-83
2021/12/26 01:41:10;;;;;;;1.23;0.97;;;-6.10;99.90;;;;;;5060747;28;20421;-84
2021/12/26 01:43:40;;;;;;;2.70;1.10;;;-6.10;99.90;;;;;;5061092;28;20032;-84
2021/12/26 01:46:06;;;;;;;1.37;1.07;;;-6.10;99.90;;;;;;5060489;28;20040;-84
2021/12/26 01:48:32;;;;;;;1.17;1.03;;;-6.10;99.90;;;;;;5060619;28;20477;-84
2021/12/26 01:50:59;;;;;;;0.60;0.60;;;-6.10;99.90;;;;;;5060882;28;20043;-84
2021/12/26 01:53:26;;;;;;;1.50;1.20;;;-6.10;99.90;;;;;;5060970;28;20040;-83
2021/12/26 01:55:53;;;;;;;1.43;0.93;;;-6.10;99.90;;;;;;5060456;28;20036;-83
2021/12/26 01:58:27;;;;;;;2.30;1.27;;;-6.10;99.90;;;;;;5060587;28;20036;-84
2021/12/26 02:01:09;;;;;;;1.33;1.17;;;-6.00;99.90;;;;;;5077338;28;20101;-84
2021/12/26 02:03:36;;;;;;;0.70;0.70;;;-6.00;99.90;;;;;;5061755;28;20036;-83
2021/12/26 02:06:03;;;;;;;1.13;0.80;;;-6.00;99.90;;;;;;5077996;28;20127;-84
2021/12/26 02:08:28;;;;;;;1.90;1.07;;;-6.10;99.90;;;;;;5061278;28;20055;-84
2021/12/26 02:10:54;;;;;;;0.50;0.50;;;-6.10;99.90;;;;;;5061439;28;20477;-84
2021/12/26 02:13:19;;;;;;;1.77;0.90;;;-6.10;99.90;;;;;;5061213;28;20458;-84
2021/12/26 02:15:45;;;;;;;0.80;0.80;;;-6.10;99.90;;;;;;5077946;28;20040;-84
2021/12/26 02:18:11;;;;;;;1.17;0.80;;;-6.10;99.90;;;;;;5077627;28;20119;-84
2021/12/26 02:21:00;;;;;;;1.77;1.00;;;-6.10;99.90;;;;;;5061022;28;20051;-84
2021/12/26 02:23:48;;;;;;;2.17;1.20;;;-6.10;99.90;;;;;;5060821;28;20043;-84
2021/12/26 02:28:57;;;;;;;0.70;0.70;;;-6.00;99.90;;;;;;5077510;28;20401;-84
2021/12/26 02:31:23;;;;;;;0.67;0.67;;;-6.00;99.90;;;;;;5077492;28;20040;-84
2021/12/26 02:33:48;;;;;;;0.70;0.70;;;-6.00;99.90;;;;;;5060747;28;20032;-84
2021/12/26 02:36:14;;;;;;;1.37;1.07;;;-6.00;99.90;;;;;;5060633;28;20039;-84
2021/12/26 02:38:39;;;;;;;1.80;0.87;;;-6.00;99.90;;;;;;5060677;28;20028;-84
2021/12/26 02:41:06;;;;;;;1.10;1.00;;;-5.90;99.90;;;;;;5077402;28;20032;-84
2021/12/26 02:43:33;;;;;;;1.13;0.70;;;-5.90;99.90;;;;;;5060343;28;20413;-84
2021/12/26 02:46:05;;;;;;;2.03;1.30;;;-5.90;99.90;;;;;;5060564;28;20162;-84
2021/12/26 02:48:31;;;;;;;0.73;0.73;;;-5.90;99.90;;;;;;5077187;28;20046;-84
2021/12/26 02:50:57;;;;;;;11.23;1.10;;;-5.90;99.90;;;;;;5077195;28;20037;-84
2021/12/26 02:53:23;;;;;;;1.53;1.20;;;-5.90;99.90;;;;;;5060502;28;20040;-83
2021/12/26 02:55:54;;;;;;;3.10;1.40;;;-5.90;99.90;;;;;;5060775;28;20036;-83
2021/12/26 02:58:20;;;;;;;2.67;1.10;;;-5.90;99.90;;;;;;5060524;28;20122;-84
2021/12/26 03:00:51;;;;;;;2.47;1.40;;;-5.90;99.90;;;;;;5060235;28;20148;-84
2021/12/26 03:03:17;;;;;;;2.23;1.27;;;-5.90;99.90;;;;;;5060120;28;20085;-84
2021/12/26 03:05:45;;;;;;;0.60;0.60;;;-5.90;99.90;;;;;;5060220;28;20043;-83
2021/12/26 03:08:14;;;;;;;2.10;1.53;;;-5.90;99.90;;;;;;5060202;28;20036;-84
2021/12/26 03:10:40;;;;;;;1.00;0.90;;;-5.90;99.90;;;;;;5059745;28;20043;-84
2021/12/26 03:13:09;;;;;;;1.67;1.20;;;-5.90;99.90;;;;;;5058939;28;20044;-83
2021/12/26 03:15:36;;;;;;;0.83;0.83;;;-5.90;99.90;;;;;;5058996;28;20040;-84
2021/12/26 03:18:01;;;;;;;1.00;0.87;;;-5.90;99.90;;;;;;5058659;28;20119;-83
2021/12/26 03:20:31;;;;;;;1.33;1.10;;;-5.90;99.90;;;;;;5059170;28;20478;-83
2021/12/26 03:23:01;;;;;;;1.33;1.07;;;-5.90;99.90;;;;;;5075438;28;20457;-84
2021/12/26 03:25:28;;;;;;;1.80;1.37;;;-5.90;99.90;;;;;;5058977;28;20043;-84
2021/12/26 03:27:53;;;;;;;2.17;1.10;;;-5.90;99.90;;;;;;5058733;28;20039;-84
2021/12/26 03:30:23;;;;;;;1.60;1.10;;;-5.90;99.90;;;;;;5058788;28;20039;-83
2021/12/26 03:32:49;;;;;;;2.60;1.37;;;-5.90;99.90;;;;;;5058688;28;20047;-83
2021/12/26 03:35:16;;;;;;;3.70;1.03;;;-5.90;99.90;;;;;;5075407;28;20382;-84
2021/12/26 03:37:43;;;;;;;0.77;0.73;;;-5.90;99.90;;;;;;5075398;28;20079;-84
2021/12/26 03:40:10;;;;;;;3.10;1.13;;;-5.90;99.90;;;;;;5058596;28;20036;-83
2021/12/26 03:42:36;;;;;;;1.53;1.17;;;-6.00;99.90;;;;;;5058411;28;20040;-84
2021/12/26 03:45:04;;;;;;;2.97;1.63;;;-6.00;99.90;;;;;;5058378;28;20512;-86
2021/12/26 03:47:31;;;;;;;1.07;0.80;;;-6.00;99.90;;;;;;5075220;28;20127;-84
2021/12/26 03:49:57;;;;;;;1.20;0.80;;;-6.00;99.90;;;;;;5058580;28;20520;-84
2021/12/26 03:52:24;;;;;;;1.00;0.90;;;-6.00;99.90;;;;;;5058258;28;20072;-83
2021/12/26 03:54:51;;;;;;;1.40;1.10;;;-6.00;99.90;;;;;;5058267;28;20036;-84
2021/12/26 03:57:16;;;;;;;2.63;1.10;;;-6.00;99.90;;;;;;5057651;28;20036;-84
2021/12/26 03:59:42;;;;;;;2.30;2.10;;;-6.00;99.90;;;;;;5074759;28;20093;-84
2021/12/26 04:02:07;;;;;;;1.47;1.17;;;-6.00;99.90;;;;;;5058286;28;20535;-83
2021/12/26 04:04:33;;;;;;;3.27;1.20;;;-6.00;99.90;;;;;;5058281;28;20119;-84
2021/12/26 04:06:59;;;;;;;1.40;1.07;;;-6.00;99.90;;;;;;5057938;28;20040;-83
2021/12/26 04:09:24;;;;;;;4.90;1.60;;;-6.10;99.90;;;;;;5057990;28;20111;-84
2021/12/26 04:11:50;;;;;;;1.13;1.03;;;-6.10;99.90;;;;;;5057984;28;20047;-84
2021/12/26 04:14:17;;;;;;;1.17;0.60;;;-6.10;99.90;;;;;;5057722;28;20516;-84
2021/12/26 04:16:43;;;;;;;1.10;1.00;;;-6.10;99.90;;;;;;5057985;28;20545;-84
2021/12/26 04:19:09;;;;;;;1.20;1.00;;;-6.00;99.90;;;;;;5057782;28;20047;-84
2021/12/26 04:21:35;;;;;;;0.97;0.80;;;-6.10;99.90;;;;;;5074404;28;20401;-84
2021/12/26 04:24:01;;;;;;;2.60;1.20;;;-6.10;99.90;;;;;;5057890;28;20043;-84
2021/12/26 04:26:27;;;;;;;1.83;1.20;;;-6.10;99.90;;;;;;5059291;28;20032;-84
2021/12/26 04:28:53;;;;;;;3.70;0.83;;;-6.10;99.90;;;;;;5075876;28;20036;-84
2021/12/26 04:31:18;;;;;;;6.67;1.33;;;-6.10;99.90;;;;;;5078656;27;20034;-84
2021/12/26 04:33:46;;;;;;;1.77;1.17;;;-6.10;99.90;;;;;;5099910;28;20035;-83
2021/12/26 04:36:13;;;;;;;1.63;1.10;;;-6.10;99.90;;;;;;5090769;27;20069;-84
2021/12/26 04:38:39;;;;;;;1.97;1.43;;;-6.10;99.90;;;;;;5071182;28;20031;-84
2021/12/26 04:41:05;;;;;;;2.30;1.07;;;-6.10;99.90;;;;;;5103552;28;20046;-84
2021/12/26 04:43:34;;;;;;;3.87;1.40;;;-6.10;99.90;;;;;;5064209;28;20040;-84
2021/12/26 04:46:02;;;;;;;2.40;1.27;;;-6.10;99.90;;;;;;5077371;28;20036;-84
2021/12/26 04:48:28;;;;;;;1.33;1.00;;;-6.10;99.90;;;;;;5078542;27;20476;-84
2021/12/26 04:50:53;;;;;;;0.70;0.70;;;-6.20;99.90;;;;;;5076206;28;20084;-84
2021/12/26 04:53:19;;;;;;;1.83;1.07;;;-6.20;99.90;;;;;;5078767;28;20385;-84
2021/12/26 04:55:45;;;;;;;1.50;1.17;;;-6.10;99.90;;;;;;5078965;28;20330;-83
2021/12/26 04:58:11;;;;;;;1.43;1.30;;;-6.20;99.90;;;;;;5090128;28;20040;-84
2021/12/26 05:00:36;;;;;;;1.80;1.23;;;-6.10;99.90;;;;;;5067043;28;20051;-84
2021/12/26 05:03:03;;;;;;;2.37;1.30;;;-6.10;99.90;;;;;;5071038;28;20050;-84
2021/12/26 05:05:30;;;;;;;1.70;1.50;;;-6.20;99.90;;;;;;5083103;28;20043;-83
2021/12/26 05:07:56;;;;;;;1.43;0.87;;;-6.20;99.90;;;;;;5085946;27;20397;-84
2021/12/26 05:10:25;;;;;;;2.10;1.00;;;-6.20;99.90;;;;;;5091651;27;20043;-84
2021/12/26 05:12:50;;;;;;;2.27;1.37;;;-6.20;99.90;;;;;;5101653;27;20526;-84
2021/12/26 05:15:17;;;;;;;2.43;1.30;;;-6.20;99.90;;;;;;5101863;27;20042;-83
2021/12/26 05:17:42;;;;;;;2.07;1.33;;;-6.20;99.90;;;;;;5101512;27;20049;-84
2021/12/26 05:20:10;;;;;;;5.50;1.20;;;-6.20;99.90;;;;;;5101889;27;20525;-84
2021/12/26 05:22:36;;;;;;;2.37;1.27;;;-6.20;99.90;;;;;;5109966;27;20035;-84
2021/12/26 05:25:03;;;;;;;1.33;1.20;;;-6.20;99.90;;;;;;5099572;28;20039;-83
2021/12/26 05:27:28;;;;;;;0.80;0.80;;;-6.20;99.90;;;;;;5080921;28;20085;-84
2021/12/26 05:29:54;;;;;;;3.40;1.57;;;-6.20;99.90;;;;;;5081176;28;20480;-84
2021/12/26 05:32:20;;;;;;;1.93;1.23;;;-6.20;99.90;;;;;;5081383;28;20492;-84
2021/12/26 05:34:45;;;;;;;2.33;1.37;;;-6.20;99.90;;;;;;5097871;28;20039;-83
2021/12/26 05:37:11;;;;;;;2.27;0.87;;;-6.20;99.90;;;;;;5098112;27;20141;-84
2021/12/26 05:39:36;;;;;;;3.40;1.60;;;-6.20;99.90;;;;;;5109611;27;20035;-83
2021/12/26 05:42:02;;;;;;;1.20;1.03;;;-6.20;99.90;;;;;;5101082;27;20039;-84
2021/12/26 05:44:28;;;;;;;2.30;1.57;;;-6.00;99.90;;;;;;5101415;27;20115;-84
2021/12/26 05:46:53;;;;;;;1.20;1.07;;;-6.20;99.90;;;;;;5100947;27;20068;-84
2021/12/26 05:49:19;;;;;;;2.40;1.37;;;-6.20;99.90;;;;;;5101155;27;20044;-84
2021/12/26 05:51:45;;;;;;;3.13;1.67;;;-6.20;99.90;;;;;;5101361;27;20462;-84
2021/12/26 05:54:10;;;;;;;1.50;0.97;;;-6.20;99.90;;;;;;5101020;27;20039;-84
2021/12/26 05:56:36;;;;;;;1.03;0.93;;;-6.20;99.90;;;;;;5097836;27;20078;-84
2021/12/26 05:59:02;;;;;;;1.97;1.50;;;-6.20;99.90;;;;;;5109270;27;20062;-84
2021/12/26 06:01:28;;;;;;;1.60;1.37;;;-6.10;99.90;;;;;;5100977;27;20060;-84
2021/12/26 06:03:53;;;;;;;3.03;1.43;;;-6.10;99.90;;;;;;5100854;27;20035;-84
2021/12/26 06:06:19;;;;;;;2.27;1.33;;;-6.10;99.90;;;;;;5117865;27;20074;-84
2021/12/26 06:08:45;;;;;;;0.77;0.77;;;-6.20;99.90;;;;;;5100967;27;20039;-84
2021/12/26 06:11:10;;;;;;;0.73;0.70;;;-6.20;99.90;;;;;;5100984;27;20038;-83
2021/12/26 06:13:36;;;;;;;2.27;1.47;;;-6.20;99.90;;;;;;5090683;28;20626;-84
2021/12/26 06:16:02;;;;;;;5.13;1.67;;;-6.20;99.90;;;;;;5087946;27;20032;-84
2021/12/26 06:18:28;;;;;;;1.90;1.30;;;-6.20;99.90;;;;;;5100517;27;20049;-84
2021/12/26 06:20:53;;;;;;;2.27;1.23;;;-6.20;99.90;;;;;;5100074;27;20034;-84
2021/12/26 06:23:19;;;;;;;2.63;1.33;;;-6.20;99.90;;;;;;5100448;27;20043;-84
2021/12/26 06:25:44;;;;;;;3.07;1.37;;;-6.20;99.90;;;;;;5117288;27;20035;-84
2021/12/26 06:28:10;;;;;;;3.10;1.43;;;-6.20;99.90;;;;;;5100475;27;20031;-84
2021/12/26 06:30:37;;;;;;;2.57;1.53;;;-6.20;99.90;;;;;;5100285;27;20035;-84
2021/12/26 06:33:03;;;;;;;2.10;1.10;;;-6.20;99.90;;;;;;5100257;27;20514;-84
2021/12/26 06:35:28;;;;;;;1.57;1.10;;;-6.20;99.90;;;;;;5085255;27;20033;-84
2021/12/26 06:37:54;;;;;;;2.43;1.60;;;-6.20;99.90;;;;;;5082110;28;20039;-84
2021/12/26 06:40:20;;;;;;;1.40;1.07;;;-6.20;99.90;;;;;;5080057;28;20044;-84
2021/12/26 06:42:46;;;;;;;2.07;1.13;;;-6.30;99.90;;;;;;5079895;28;20067;-84
2021/12/26 06:45:15;;;;;;;2.43;1.50;;;-6.30;99.90;;;;;;5079766;28;20458;-84
2021/12/26 06:47:45;;;;;;;2.63;1.90;;;-6.20;99.90;;;;;;5079730;28;20139;-84
2021/12/26 06:50:11;;;;;;;3.03;1.73;;;-6.20;99.90;;;;;;5096499;28;20047;-83
2021/12/26 06:52:37;;;;;;;2.30;1.17;;;-6.20;99.90;;;;;;5079476;28;20040;-84
2021/12/26 06:55:05;;;;;;;2.20;1.30;;;-6.20;99.90;;;;;;5079497;28;20050;-84
2021/12/26 06:57:31;;;;;;;1.77;1.37;;;-6.20;99.90;;;;;;5096259;28;20488;-84
2021/12/26 06:59:56;;;;;;;0.67;0.67;;;-6.20;99.90;;;;;;5079540;28;20073;-84
2021/12/26 07:02:22;;;;;;;2.47;0.80;;;-6.20;99.90;;;;;;5079476;28;20561;-84
2021/12/26 07:04:48;;;;;;;1.90;1.40;;;-6.20;99.90;;;;;;5079454;28;20123;-84
2021/12/26 07:07:14;;;;;;;3.13;1.83;;;-6.20;99.90;;;;;;5079205;28;20043;-84
2021/12/26 07:09:42;;;;;;;1.70;1.43;;;-6.20;99.90;;;;;;5079078;28;20031;-84
2021/12/26 07:12:09;;;;;;;1.53;1.13;;;-6.20;99.90;;;;;;5079165;28;20132;-84
2021/12/26 07:14:35;;;;;;;0.93;0.70;;;-6.20;99.90;;;;;;5096122;28;20040;-84
2021/12/26 07:17:00;;;;;;;1.23;0.70;;;-6.20;99.90;;;;;;5095897;28;20039;-84
2021/12/26 07:19:26;;;;;;;2.80;1.50;;;-6.20;99.90;;;;;;5079081;28;20039;-84
2021/12/26 07:21:51;;;;;;;3.20;1.33;;;-6.20;99.90;;;;;;5078908;28;20408;-84
2021/12/26 07:24:17;;;;;;;3.13;1.77;;;-6.20;99.90;;;;;;5079034;28;20120;-84
2021/12/26 07:26:42;;;;;;;1.13;1.03;;;-6.20;99.90;;;;;;5078737;28;20039;-84
2021/12/26 07:29:08;;;;;;;2.70;1.73;;;-6.20;99.90;;;;;;5095724;28;20042;-84
2021/12/26 07:31:34;;;;;;;1.83;1.33;;;-6.20;99.90;;;;;;5078288;28;20032;-83
2021/12/26 07:33:59;;;;;;;3.10;2.00;;;-6.20;99.90;;;;;;5095270;28;20503;-84
2021/12/26 07:36:25;;;;;;;2.53;1.23;;;-6.20;99.90;;;;;;5095346;28;20043;-84
2021/12/26 07:38:53;;;;;;;2.10;1.70;;;-6.20;99.90;;;;;;5078987;28;20073;-84
2021/12/26 07:41:19;;;;;;;3.57;1.60;;;-6.20;99.90;;;;;;5078677;28;20464;-83
2021/12/26 07:43:45;;;;;;;1.13;0.93;;;-6.20;99.90;;;;;;5078662;28;20130;-83
2021/12/26 07:46:11;;;;;;;6.43;1.50;;;-6.20;99.90;;;;;;5095679;28;20035;-83
2021/12/26 07:48:37;;;;;;;0.90;0.90;;;-6.10;99.90;;;;;;5078881;28;20479;-84
2021/12/26 07:51:05;;;;;;;7.23;1.10;;;-6.20;99.90;;;;;;5095252;28;20039;-84
2021/12/26 07:53:30;;;;;;;1.40;1.03;;;-6.20;99.90;;;;;;5078615;28;20035;-83
2021/12/26 07:55:56;;;;;;;2.07;1.10;;;-6.20;99.90;;;;;;5078293;28;20061;-84
2021/12/26 07:58:21;;;;;;;1.63;1.33;;;-6.10;99.90;;;;;;5078130;28;20374;-84
2021/12/26 08:00:47;;;;;;;1.53;1.10;;;-6.10;99.90;;;;;;5095232;28;20382;-84
2021/12/26 08:03:13;;;;;;;4.07;2.23;;;-6.10;99.90;;;;;;5095095;28;20456;-83
2021/12/26 08:05:38;;;;;;;5.47;2.57;;;-6.10;99.90;;;;;;5094925;28;20114;-84
2021/12/26 08:08:04;;;;;;;4.50;1.20;;;-6.10;99.90;;;;;;5078195;28;20058;-83
2021/12/26 08:10:30;;;;;;;5.23;1.57;;;-6.10;99.90;;;;;;5078039;28;20392;-84
2021/12/26 08:12:55;;;;;;;1.80;1.17;;;-6.10;99.90;;;;;;5078265;28;20142;-84
2021/12/26 08:15:21;;;;;;;4.03;2.00;;;-6.10;99.90;;;;;;5078233;28;20400;-84
2021/12/26 08:17:47;;;;;;;2.47;1.60;;;-6.10;99.90;;;;;;5078073;28;20042;-86
2021/12/26 08:20:12;;;;;;;2.87;1.63;;;-6.00;99.90;;;;;;5077926;28;20047;-84
2021/12/26 08:22:38;;;;;;;4.07;2.00;;;-6.10;99.90;;;;;;5077846;28;20040;-84
2021/12/26 08:25:04;;;;;;;4.07;1.90;;;-6.10;99.90;;;;;;5077899;28;20485;-84
2021/12/26 08:27:32;;;;;;;2.37;1.30;;;-6.00;99.90;;;;;;5094561;28;20046;-84
2021/12/26 08:29:58;;;;;;;3.60;2.07;;;-6.00;99.90;;;;;;5077950;28;20043;-84
2021/12/26 08:32:24;;;;;;;2.40;1.73;;;-6.00;99.90;;;;;;5077792;28;20085;-84
2021/12/26 08:34:50;;;;;;;1.33;1.10;;;-6.00;99.90;;;;;;5077696;28;20047;-84
2021/12/26 08:37:16;;;;;;;4.50;1.97;;;-6.00;99.90;;;;;;5077471;28;20484;-84
2021/12/26 08:39:43;;;;;;;2.90;2.10;;;-5.90;99.90;;;;;;5094553;28;20057;-84
2021/12/26 08:42:11;;;;;;;1.90;1.37;;;-5.90;99.90;;;;;;5094425;28;20039;-84
2021/12/26 08:44:37;;;;;;;6.57;3.10;;;-5.90;99.90;;;;;;5077598;28;20055;-84
2021/12/26 08:47:05;;;;;;;1.77;1.53;;;-5.80;99.90;;;;;;5077455;28;20040;-84
2021/12/26 08:49:31;;;;;;;1.53;1.20;;;-5.80;99.90;;;;;;5077641;28;20062;-84
2021/12/26 08:51:57;;;;;;;2.90;1.77;;;-5.80;99.90;;;;;;5077502;28;20496;-84
2021/12/26 08:54:26;;;;;;;4.20;2.00;;;-5.70;99.90;;;;;;5094331;28;20039;-83
2021/12/26 08:56:53;;;;;;;3.03;2.00;;;-5.70;99.90;;;;;;5077681;28;20031;-84
2021/12/26 08:59:19;;;;;;;2.17;1.27;;;-5.70;99.90;;;;;;5077722;28;20036;-84
2021/12/26 09:01:46;;;;;;;1.13;1.00;;;-5.60;99.90;;;;;;5074242;28;20552;-84
2021/12/26 09:04:12;;;;;;;2.93;1.63;;;-5.60;99.90;;;;;;5066807;28;20042;-83
2021/12/26 09:06:37;;;;;;;1.17;1.07;;;-5.50;99.90;;;;;;5068680;28;20114;-84
2021/12/26 09:09:03;;;;;;;2.80;1.57;;;-5.50;99.90;;;;;;5066267;28;20553;-84
2021/12/26 09:11:29;;;;;;;3.57;1.77;;;-5.50;99.90;;;;;;5067564;28;20043;-84
2021/12/26 09:13:55;;;;;;;2.83;1.70;;;-5.40;99.90;;;;;;5084080;28;20107;-84
2021/12/26 09:16:21;;;;;;;4.33;2.37;;;-5.40;99.90;;;;;;5065897;28;20032;-84
2021/12/26 09:18:47;;;;;;;1.20;1.03;;;-5.40;99.90;;;;;;5068347;28;20036;-84
2021/12/26 09:21:12;;;;;;;1.67;1.10;;;-5.40;99.90;;;;;;5069666;28;20054;-84
2021/12/26 09:23:38;;;;;;;3.27;1.97;;;-5.40;99.90;;;;;;5081466;28;20047;-84
2021/12/26 09:26:03;;;;;;;3.53;1.97;;;-5.50;99.90;;;;;;5081739;28;20480;-84
2021/12/26 09:28:30;;;;;;;1.40;1.10;;;-5.50;99.90;;;;;;5087814;28;20039;-84
2021/12/26 09:30:56;;;;;;;5.50;2.13;;;-5.50;99.90;;;;;;5084088;28;20040;-84
2021/12/26 09:33:22;;;;;;;3.80;1.97;;;-5.50;99.90;;;;;;5081545;28;20581;-84
2021/12/26 09:35:49;;;;;;;2.97;1.90;;;-5.40;99.90;;;;;;5085004;28;20063;-84
2021/12/26 09:38:15;;;;;;;3.03;1.10;;;-5.40;99.90;;;;;;5065186;28;20051;-83
2021/12/26 09:40:41;;;;;;;1.77;1.37;;;-5.40;99.90;;;;;;5068990;28;20036;-84
2021/12/26 09:43:08;;;;;;;2.00;1.30;;;-5.30;99.90;;;;;;5060868;28;20588;-84
2021/12/26 09:45:34;;;;;;;5.27;1.60;;;-5.20;99.90;;;;;;5104667;28;20548;-84
2021/12/26 09:47:59;;;;;;;2.43;1.47;;;-5.10;99.90;;;;;;5090441;28;20114;-84
2021/12/26 09:50:25;;;;;;;4.33;2.23;;;-5.00;99.90;;;;;;5065222;28;20040;-84
2021/12/26 09:52:53;;;;;;;4.00;2.23;;;-4.90;99.90;;;;;;5083191;28;20036;-84
2021/12/26 09:55:20;;;;;;;3.50;1.97;;;-4.70;99.90;;;;;;5068450;28;20081;-84
2021/12/26 09:57:46;;;;;;;3.90;2.03;;;-4.60;99.90;;;;;;5068864;28;20484;-84
2021/12/26 10:00:32;;;;;;;3.50;2.10;;;-4.60;99.90;;;;;;5068714;28;20089;-84
2021/12/26 10:03:16;;;;;;;4.03;1.50;;;-4.50;99.90;;;;;;5070829;28;20760;-84
2021/12/26 10:06:14;;;;;;;6.60;2.07;;;-4.40;99.90;;;;;;5077180;28;20079;-84
2021/12/26 10:08:55;;;;;;;4.17;1.47;;;-4.30;99.90;;;;;;5076896;28;20024;-84
2021/12/26 10:11:22;;;;;;;6.07;1.87;;;-4.30;99.90;;;;;;5082376;28;20111;-84
2021/12/26 10:14:03;;;;;;;7.60;1.60;;;-4.20;99.90;;;;;;5070960;28;20073;-84
2021/12/26 10:16:36;;;;;;;4.27;1.97;;;-4.20;99.90;;;;;;5074987;28;20040;-84
2021/12/26 10:19:03;;;;;;;4.20;2.27;;;-4.10;99.90;;;;;;5067609;28;20038;-84
2021/12/26 10:21:47;;;;;;;3.03;1.70;;;-4.10;99.90;;;;;;5072025;28;20488;-84
2021/12/26 10:24:37;;;;;;;2.07;1.47;;;-4.00;99.90;;;;;;5072182;28;20550;-84
2021/12/26 10:27:10;;;;;;;2.27;1.67;;;-4.00;99.90;;;;;;5068614;28;20397;-84
2021/12/26 10:29:49;;;;;;;4.33;2.20;;;-3.90;99.90;;;;;;5068094;28;20032;-84
2021/12/26 10:32:22;;;;;;;6.10;2.23;;;-3.80;99.90;;;;;;5077203;28;20040;-84
2021/12/26 10:34:50;;;;;;;3.93;2.37;;;-3.80;99.90;;;;;;5088634;28;20085;-84
2021/12/26 10:37:42;;;;;;;6.63;4.07;;;-3.80;99.90;;;;;;5070413;28;20126;-84
2021/12/26 10:40:14;;;;;;;2.83;1.90;;;-3.70;99.90;;;;;;5084350;28;20065;-84
2021/12/26 10:42:44;;;;;;;1.20;0.97;;;-3.70;99.90;;;;;;5075219;28;20040;-84
2021/12/26 10:45:13;;;;;;;3.73;1.93;;;-3.70;99.90;;;;;;5071162;28;20038;-83
2021/12/26 10:47:41;;;;;;;6.97;2.37;;;-3.70;99.90;;;;;;5078783;28;20435;-84
2021/12/26 10:50:12;;;;;;;4.50;2.07;;;-3.70;99.90;;;;;;5073100;27;20035;-84
2021/12/26 10:52:50;;;;;;;3.40;1.97;;;-3.70;99.90;;;;;;5073014;28;20032;-84
2021/12/26 10:55:19;;;;;;;2.00;1.33;;;-3.70;99.90;;;;;;5073454;27;20039;-84
2021/12/26 10:57:47;;;;;;;2.47;1.60;;;-3.60;99.90;;;;;;5070126;28;20104;-84
2021/12/26 11:00:25;;;;;;;4.53;2.33;;;-3.70;99.90;;;;;;5072556;28;20071;-84
2021/12/26 11:02:59;;;;;;;4.80;2.57;;;-3.70;99.90;;;;;;5087600;28;20071;-84
2021/12/26 11:05:31;;;;;;;4.03;2.33;;;-3.60;99.90;;;;;;5070167;28;20039;-84
2021/12/26 11:07:58;;;;;;;5.87;2.67;;;-3.60;99.90;;;;;;5062578;28;20036;-84
2021/12/26 11:10:33;;;;;;;10.00;2.93;;;-3.50;99.90;;;;;;5068449;28;20492;-83
2021/12/26 11:13:01;;;;;;;8.60;2.60;;;-3.60;99.90;;;;;;5071500;28;20081;-83
2021/12/26 11:15:40;;;;;;;2.47;1.47;;;-3.50;99.90;;;;;;5071033;28;20119;-84
2021/12/26 11:18:12;;;;;;;7.27;3.27;;;-3.50;99.90;;;;;;5083973;28;20039;-84
2021/12/26 11:20:40;;;;;;;2.40;1.70;;;-3.50;99.90;;;;;;5058689;28;20409;-84
2021/12/26 11:23:15;;;;;;;4.43;2.53;;;-3.50;99.90;;;;;;5081832;28;20032;-84
2021/12/26 11:25:53;;;;;;;6.35;2.92;;;-3.40;99.90;;;;;;5063271;28;20028;-83
2021/12/26 11:28:26;;;;;;;5.63;2.97;;;-3.40;99.90;;;;;;5085495;28;20078;-84
2021/12/26 11:30:59;;;;;;;3.83;1.37;;;-3.40;99.90;;;;;;5066659;28;20489;-84
2021/12/26 11:33:26;;;;;;;3.77;2.10;;;-3.40;99.90;;;;;;5083574;28;20492;-83
2021/12/26 11:35:54;;;;;;;7.10;2.60;;;-3.30;99.90;;;;;;5067438;28;20035;-84
2021/12/26 11:38:23;;;;;;;4.70;2.03;;;-3.30;99.90;;;;;;5069373;28;20089;-84
2021/12/26 11:40:51;;;;;;;7.23;3.17;;;-3.30;99.90;;;;;;5080470;28;20050;-84
2021/12/26 11:43:55;;;;;;;0.70;0.70;;;-3.20;99.90;;;;;;5067244;28;20053;-84
2021/12/26 11:46:55;;;;;;;4.43;2.80;;;-3.20;99.90;;;;;;5065027;28;20058;-84
2021/12/26 11:49:23;;;;;;;6.57;2.90;;;-3.20;99.90;;;;;;5069415;28;20388;-84
2021/12/26 11:52:01;;;;;;;5.27;3.27;;;-3.10;99.90;;;;;;5084626;28;20122;-84
2021/12/26 11:54:30;;;;;;;4.13;2.43;;;-3.10;99.90;;;;;;5073631;28;20082;-84
2021/12/26 11:57:13;;;;;;;2.80;1.67;;;-3.10;99.90;;;;;;5067383;28;20397;-84
2021/12/26 12:00:06;;;;;;;7.17;3.20;;;-3.10;99.90;;;;;;5066235;28;20477;-84
2021/12/26 12:02:37;;;;;;;4.60;2.50;;;-3.10;99.90;;;;;;5065544;28;20074;-84
2021/12/26 12:05:22;;;;;;;5.63;2.60;;;-3.00;99.90;;;;;;5061784;28;20523;-84
2021/12/26 12:08:04;;;;;;;3.92;2.45;;;-3.00;99.90;;;;;;5080362;28;20489;-84
2021/12/26 12:10:48;;;;;;;5.53;2.80;;;-3.00;99.90;;;;;;5080234;28;20032;-84
2021/12/26 12:13:26;;;;;;;8.17;3.37;;;-2.90;99.90;;;;;;5061708;28;20043;-83
2021/12/26 12:16:06;;;;;;;3.63;1.87;;;-2.90;99.90;;;;;;5070525;28;20044;-83
2021/12/26 12:18:56;;;;;;;5.03;2.60;;;-2.90;99.90;;;;;;5082156;28;20044;-84
2021/12/26 12:21:34;;;;;;;2.93;1.90;;;-2.90;99.90;;;;;;5069605;28;20560;-84
2021/12/26 12:24:02;;;;;;;3.60;2.30;;;-2.80;99.90;;;;;;5057579;28;20047;-84
2021/12/26 12:26:53;;;;;;;3.43;2.03;;;-2.80;99.90;;;;;;5065704;28;20032;-83
2021/12/26 12:29:21;;;;;;;4.37;2.47;;;-2.80;99.90;;;;;;5062582;28;20044;-84
2021/12/26 12:31:48;;;;;;;2.27;1.80;;;-2.80;99.90;;;;;;5065075;28;20421;-84
2021/12/26 12:34:14;;;;;;;6.73;2.97;;;-2.70;99.90;;;;;;5067629;28;20108;-83
2021/12/26 12:36:45;;;;;;;1.77;1.50;;;-2.70;99.90;;;;;;5065788;28;20541;-84
2021/12/26 12:39:13;;;;;;;6.53;3.27;;;-2.70;99.90;;;;;;5066586;28;20404;-83
2021/12/26 12:41:46;;;;;;;3.10;1.10;;;-2.70;99.90;;;;;;5084992;28;20118;-83
2021/12/26 12:44:34;;;;;;;8.50;3.00;;;-2.60;99.90;;;;;;5071008;28;20127;-84
2021/12/26 12:47:02;;;;;;;7.33;3.40;;;-2.60;99.90;;;;;;5082252;28;20504;-83
2021/12/26 12:49:52;;;;;;;5.43;3.00;;;-2.60;99.90;;;;;;5069096;28;20081;-84
2021/12/26 12:52:42;;;;;;;3.53;2.13;;;-2.50;99.90;;;;;;5066740;28;20039;-84
2021/12/26 12:55:12;;;;;;;3.10;2.03;;;-2.50;99.90;;;;;;5066282;28;20181;-84
2021/12/26 12:57:45;;;;;;;2.67;1.87;;;-2.50;99.90;;;;;;5072232;28;20050;-84